sensor_id;sensor_type;location;lat;lon;timestamp;P1;durP1;ratioP1;P2;durP2;ratioP2
42632;SDS011;28261;53.304;-6.284;2022-12-07T00:00:16;45.33;;;22.17;;
42632;SDS011;28261;53.304;-6.284;2022-12-07T00:02:24;45.05;;;21.20;;
42632;SDS011;28261;53.304;-6.284;2022-12-07T00:04:41;40.00;;;18.73;;
42632;SDS011;28261;53.304;-6.284;2022-12-07T00:06:50;39.95;;;19.08;;
42632;SDS011;28261;53.304;-6.284;2022-12-07T00:08:56;41.38;;;19.95;;
42632;SDS011;28261;53.304;-6.284;2022-12-07T00:11:01;40.42;;;19.55;;
42632;SDS011;28261;53.304;-6.284;2022-12-07T00:13:07;48.42;;;19.08;;
42632;SDS011;28261;53.304;-6.284;2022-12-07T00:15:11;45.17;;;18.98;;
42632;SDS011;28261;53.304;-6.284;2022-12-07T00:17:15;46.35;;;18.58;;
42632;SDS011;28261;53.304;-6.284;2022-12-07T00:19:19;35.85;;;16.38;;
42632;SDS011;28261;53.304;-6.284;2022-12-07T00:21:24;36.60;;;17.10;;
42632;SDS011;28261;53.304;-6.284;2022-12-07T00:23:29;35.72;;;17.48;;
42632;SDS011;28261;53.304;-6.284;2022-12-07T00:25:33;31.08;;;17.33;;
42632;SDS011;28261;53.304;-6.284;2022-12-07T00:27:37;35.10;;;16.58;;
42632;SDS011;28261;53.304;-6.284;2022-12-07T00:29:42;37.35;;;16.83;;
42632;SDS011;28261;53.304;-6.284;2022-12-07T00:31:46;32.92;;;16.88;;
42632;SDS011;28261;53.304;-6.284;2022-12-07T00:33:51;35.58;;;17.33;;
42632;SDS011;28261;53.304;-6.284;2022-12-07T00:35:55;35.97;;;16.83;;
42632;SDS011;28261;53.304;-6.284;2022-12-07T00:40:07;42.42;;;16.73;;
42632;SDS011;28261;53.304;-6.284;2022-12-07T00:41:20;31.15;;;14.68;;
42632;SDS011;28261;53.304;-6.284;2022-12-07T00:43:48;33.67;;;14.43;;
42632;SDS011;28261;53.304;-6.284;2022-12-07T00:46:02;34.10;;;15.23;;
42632;SDS011;28261;53.304;-6.284;2022-12-07T00:48:09;31.95;;;15.35;;
42632;SDS011;28261;53.304;-6.284;2022-12-07T00:50:17;81.47;;;36.85;;
42632;SDS011;28261;53.304;-6.284;2022-12-07T00:52:22;35.00;;;15.93;;
42632;SDS011;28261;53.304;-6.284;2022-12-07T00:54:28;37.97;;;15.73;;
42632;SDS011;28261;53.304;-6.284;2022-12-07T00:56:39;31.50;;;14.82;;
42632;SDS011;28261;53.304;-6.284;2022-12-07T00:58:49;34.72;;;15.60;;
42632;SDS011;28261;53.304;-6.284;2022-12-07T01:00:56;32.53;;;14.60;;
42632;SDS011;28261;53.304;-6.284;2022-12-07T01:03:22;36.35;;;14.48;;
42632;SDS011;28261;53.304;-6.284;2022-12-07T01:05:33;36.75;;;13.73;;
42632;SDS011;28261;53.304;-6.284;2022-12-07T01:07:38;28.98;;;13.80;;
42632;SDS011;28261;53.304;-6.284;2022-12-07T01:09:49;29.80;;;13.93;;
42632;SDS011;28261;53.304;-6.284;2022-12-07T01:12:20;29.55;;;13.43;;
42632;SDS011;28261;53.304;-6.284;2022-12-07T01:14:30;36.00;;;13.25;;
42632;SDS011;28261;53.304;-6.284;2022-12-07T01:16:49;36.47;;;15.02;;
42632;SDS011;28261;53.304;-6.284;2022-12-07T01:19:02;29.42;;;13.70;;
42632;SDS011;28261;53.304;-6.284;2022-12-07T01:21:10;32.30;;;14.63;;
42632;SDS011;28261;53.304;-6.284;2022-12-07T01:23:19;28.77;;;12.40;;
42632;SDS011;28261;53.304;-6.284;2022-12-07T01:28:32;33.05;;;12.60;;
42632;SDS011;28261;53.304;-6.284;2022-12-07T01:31:16;25.75;;;12.35;;
42632;SDS011;28261;53.304;-6.284;2022-12-07T01:33:35;26.58;;;13.18;;
42632;SDS011;28261;53.304;-6.284;2022-12-07T01:35:51;30.10;;;13.10;;
42632;SDS011;28261;53.304;-6.284;2022-12-07T01:38:47;26.75;;;11.73;;
42632;SDS011;28261;53.304;-6.284;2022-12-07T01:40:58;29.95;;;11.20;;
42632;SDS011;28261;53.304;-6.284;2022-12-07T01:43:16;28.73;;;10.50;;
42632;SDS011;28261;53.304;-6.284;2022-12-07T01:47:47;24.42;;;10.88;;
42632;SDS011;28261;53.304;-6.284;2022-12-07T01:49:55;22.13;;;9.95;;
42632;SDS011;28261;53.304;-6.284;2022-12-07T01:52:05;19.58;;;9.68;;
42632;SDS011;28261;53.304;-6.284;2022-12-07T01:54:14;28.67;;;10.75;;
42632;SDS011;28261;53.304;-6.284;2022-12-07T01:58:33;20.30;;;9.00;;
42632;SDS011;28261;53.304;-6.284;2022-12-07T02:00:37;20.67;;;8.23;;
42632;SDS011;28261;53.304;-6.284;2022-12-07T02:02:45;25.90;;;9.25;;
42632;SDS011;28261;53.304;-6.284;2022-12-07T02:05:00;22.25;;;9.27;;
42632;SDS011;28261;53.304;-6.284;2022-12-07T02:07:05;22.40;;;8.48;;
42632;SDS011;28261;53.304;-6.284;2022-12-07T02:09:13;23.45;;;9.25;;
42632;SDS011;28261;53.304;-6.284;2022-12-07T02:11:21;23.27;;;8.65;;
42632;SDS011;28261;53.304;-6.284;2022-12-07T02:13:26;21.30;;;8.32;;
42632;SDS011;28261;53.304;-6.284;2022-12-07T02:15:44;16.23;;;7.70;;
42632;SDS011;28261;53.304;-6.284;2022-12-07T02:18:05;17.15;;;8.15;;
42632;SDS011;28261;53.304;-6.284;2022-12-07T02:20:25;19.00;;;8.00;;
42632;SDS011;28261;53.304;-6.284;2022-12-07T02:22:46;14.90;;;7.32;;
42632;SDS011;28261;53.304;-6.284;2022-12-07T02:25:05;20.08;;;8.30;;
42632;SDS011;28261;53.304;-6.284;2022-12-07T02:27:25;21.65;;;8.20;;
42632;SDS011;28261;53.304;-6.284;2022-12-07T02:29:40;18.70;;;8.43;;
42632;SDS011;28261;53.304;-6.284;2022-12-07T02:31:54;22.60;;;8.02;;
42632;SDS011;28261;53.304;-6.284;2022-12-07T02:34:05;18.48;;;7.65;;
42632;SDS011;28261;53.304;-6.284;2022-12-07T02:36:16;22.52;;;8.43;;
42632;SDS011;28261;53.304;-6.284;2022-12-07T02:38:28;18.05;;;8.13;;
42632;SDS011;28261;53.304;-6.284;2022-12-07T02:40:40;18.23;;;7.25;;
42632;SDS011;28261;53.304;-6.284;2022-12-07T02:42:49;19.90;;;8.23;;
42632;SDS011;28261;53.304;-6.284;2022-12-07T02:45:00;19.27;;;8.07;;
42632;SDS011;28261;53.304;-6.284;2022-12-07T02:47:07;19.88;;;8.07;;
42632;SDS011;28261;53.304;-6.284;2022-12-07T02:49:16;19.27;;;8.27;;
42632;SDS011;28261;53.304;-6.284;2022-12-07T02:51:21;17.05;;;7.43;;
42632;SDS011;28261;53.304;-6.284;2022-12-07T02:53:28;22.25;;;8.25;;
42632;SDS011;28261;53.304;-6.284;2022-12-07T02:55:36;19.23;;;7.80;;
42632;SDS011;28261;53.304;-6.284;2022-12-07T02:57:49;18.77;;;8.43;;
42632;SDS011;28261;53.304;-6.284;2022-12-07T03:00:08;17.08;;;7.75;;
42632;SDS011;28261;53.304;-6.284;2022-12-07T03:02:18;18.55;;;7.75;;
42632;SDS011;28261;53.304;-6.284;2022-12-07T03:04:32;20.80;;;7.78;;
42632;SDS011;28261;53.304;-6.284;2022-12-07T03:06:46;16.90;;;7.25;;
42632;SDS011;28261;53.304;-6.284;2022-12-07T03:09:00;15.48;;;6.57;;
42632;SDS011;28261;53.304;-6.284;2022-12-07T03:11:13;12.10;;;6.70;;
42632;SDS011;28261;53.304;-6.284;2022-12-07T03:13:23;16.60;;;6.30;;
42632;SDS011;28261;53.304;-6.284;2022-12-07T03:15:35;18.00;;;7.47;;
42632;SDS011;28261;53.304;-6.284;2022-12-07T03:17:46;18.08;;;6.53;;
42632;SDS011;28261;53.304;-6.284;2022-12-07T03:19:53;19.25;;;6.30;;
42632;SDS011;28261;53.304;-6.284;2022-12-07T03:22:03;17.65;;;6.60;;
42632;SDS011;28261;53.304;-6.284;2022-12-07T03:24:12;15.38;;;6.35;;
42632;SDS011;28261;53.304;-6.284;2022-12-07T03:26:19;19.30;;;6.07;;
42632;SDS011;28261;53.304;-6.284;2022-12-07T03:28:28;12.90;;;5.90;;
42632;SDS011;28261;53.304;-6.284;2022-12-07T03:30:42;18.00;;;6.47;;
42632;SDS011;28261;53.304;-6.284;2022-12-07T03:32:50;21.25;;;5.88;;
42632;SDS011;28261;53.304;-6.284;2022-12-07T03:35:01;12.00;;;5.35;;
42632;SDS011;28261;53.304;-6.284;2022-12-07T03:37:10;16.95;;;5.68;;
42632;SDS011;28261;53.304;-6.284;2022-12-07T03:39:22;14.25;;;5.47;;
42632;SDS011;28261;53.304;-6.284;2022-12-07T03:41:32;15.23;;;5.53;;
42632;SDS011;28261;53.304;-6.284;2022-12-07T03:43:46;13.30;;;5.47;;
42632;SDS011;28261;53.304;-6.284;2022-12-07T03:45:58;15.02;;;5.35;;
42632;SDS011;28261;53.304;-6.284;2022-12-07T03:48:12;12.73;;;5.38;;
42632;SDS011;28261;53.304;-6.284;2022-12-07T03:50:24;12.32;;;5.68;;
42632;SDS011;28261;53.304;-6.284;2022-12-07T03:52:33;13.55;;;5.32;;
42632;SDS011;28261;53.304;-6.284;2022-12-07T03:54:44;17.10;;;5.85;;
42632;SDS011;28261;53.304;-6.284;2022-12-07T03:59:01;12.00;;;5.55;;
42632;SDS011;28261;53.304;-6.284;2022-12-07T04:01:10;19.85;;;6.50;;
42632;SDS011;28261;53.304;-6.284;2022-12-07T04:03:14;17.90;;;6.38;;
42632;SDS011;28261;53.304;-6.284;2022-12-07T04:05:19;16.08;;;6.75;;
42632;SDS011;28261;53.304;-6.284;2022-12-07T04:07:24;14.77;;;6.22;;
42632;SDS011;28261;53.304;-6.284;2022-12-07T04:09:28;19.20;;;6.65;;
42632;SDS011;28261;53.304;-6.284;2022-12-07T04:11:35;17.25;;;6.97;;
42632;SDS011;28261;53.304;-6.284;2022-12-07T04:13:39;22.52;;;7.47;;
42632;SDS011;28261;53.304;-6.284;2022-12-07T04:16:01;16.45;;;7.07;;
42632;SDS011;28261;53.304;-6.284;2022-12-07T04:18:07;21.00;;;7.13;;
42632;SDS011;28261;53.304;-6.284;2022-12-07T04:20:11;16.63;;;6.22;;
42632;SDS011;28261;53.304;-6.284;2022-12-07T04:22:16;16.15;;;6.40;;
42632;SDS011;28261;53.304;-6.284;2022-12-07T04:24:20;19.60;;;7.65;;
42632;SDS011;28261;53.304;-6.284;2022-12-07T04:26:25;21.08;;;7.70;;
42632;SDS011;28261;53.304;-6.284;2022-12-07T04:28:30;19.90;;;7.32;;
42632;SDS011;28261;53.304;-6.284;2022-12-07T04:30:34;14.68;;;7.00;;
42632;SDS011;28261;53.304;-6.284;2022-12-07T04:32:38;22.27;;;7.57;;
42632;SDS011;28261;53.304;-6.284;2022-12-07T04:34:45;15.52;;;6.95;;
42632;SDS011;28261;53.304;-6.284;2022-12-07T04:36:56;14.07;;;7.07;;
42632;SDS011;28261;53.304;-6.284;2022-12-07T04:39:00;21.90;;;7.80;;
42632;SDS011;28261;53.304;-6.284;2022-12-07T04:41:05;17.55;;;7.93;;
42632;SDS011;28261;53.304;-6.284;2022-12-07T04:43:10;14.32;;;7.18;;
42632;SDS011;28261;53.304;-6.284;2022-12-07T04:45:14;23.13;;;7.20;;
42632;SDS011;28261;53.304;-6.284;2022-12-07T04:47:18;16.25;;;7.57;;
42632;SDS011;28261;53.304;-6.284;2022-12-07T04:49:22;20.17;;;7.53;;
42632;SDS011;28261;53.304;-6.284;2022-12-07T04:51:27;18.80;;;7.28;;
42632;SDS011;28261;53.304;-6.284;2022-12-07T04:53:31;20.58;;;7.57;;
42632;SDS011;28261;53.304;-6.284;2022-12-07T04:55:35;12.45;;;7.45;;
42632;SDS011;28261;53.304;-6.284;2022-12-07T04:57:39;16.00;;;7.00;;
42632;SDS011;28261;53.304;-6.284;2022-12-07T04:59:42;18.13;;;7.20;;
42632;SDS011;28261;53.304;-6.284;2022-12-07T05:01:46;19.00;;;6.93;;
42632;SDS011;28261;53.304;-6.284;2022-12-07T05:03:50;18.58;;;7.10;;
42632;SDS011;28261;53.304;-6.284;2022-12-07T05:05:53;20.35;;;7.28;;
42632;SDS011;28261;53.304;-6.284;2022-12-07T05:07:58;16.63;;;7.65;;
42632;SDS011;28261;53.304;-6.284;2022-12-07T05:10:02;16.40;;;7.25;;
42632;SDS011;28261;53.304;-6.284;2022-12-07T05:12:06;19.77;;;7.40;;
42632;SDS011;28261;53.304;-6.284;2022-12-07T05:14:11;18.98;;;7.35;;
42632;SDS011;28261;53.304;-6.284;2022-12-07T05:16:15;19.23;;;7.57;;
42632;SDS011;28261;53.304;-6.284;2022-12-07T05:18:19;18.13;;;7.30;;
42632;SDS011;28261;53.304;-6.284;2022-12-07T05:20:23;18.95;;;7.68;;
42632;SDS011;28261;53.304;-6.284;2022-12-07T05:22:26;20.60;;;7.65;;
42632;SDS011;28261;53.304;-6.284;2022-12-07T05:24:31;13.55;;;7.00;;
42632;SDS011;28261;53.304;-6.284;2022-12-07T05:26:35;15.10;;;7.10;;
42632;SDS011;28261;53.304;-6.284;2022-12-07T05:28:38;19.42;;;7.18;;
42632;SDS011;28261;53.304;-6.284;2022-12-07T05:30:42;15.95;;;7.32;;
42632;SDS011;28261;53.304;-6.284;2022-12-07T05:32:46;22.95;;;7.68;;
42632;SDS011;28261;53.304;-6.284;2022-12-07T05:34:49;20.33;;;7.60;;
42632;SDS011;28261;53.304;-6.284;2022-12-07T05:36:54;18.17;;;7.55;;
42632;SDS011;28261;53.304;-6.284;2022-12-07T05:38:58;24.05;;;7.97;;
42632;SDS011;28261;53.304;-6.284;2022-12-07T05:41:04;22.55;;;7.68;;
42632;SDS011;28261;53.304;-6.284;2022-12-07T05:43:09;18.52;;;7.18;;
42632;SDS011;28261;53.304;-6.284;2022-12-07T05:45:12;16.75;;;7.07;;
42632;SDS011;28261;53.304;-6.284;2022-12-07T05:47:16;14.57;;;6.78;;
42632;SDS011;28261;53.304;-6.284;2022-12-07T05:49:19;15.40;;;7.03;;
42632;SDS011;28261;53.304;-6.284;2022-12-07T05:51:23;20.48;;;6.47;;
42632;SDS011;28261;53.304;-6.284;2022-12-07T05:53:27;15.48;;;6.35;;
42632;SDS011;28261;53.304;-6.284;2022-12-07T05:55:30;14.43;;;6.40;;
42632;SDS011;28261;53.304;-6.284;2022-12-07T05:57:35;16.55;;;6.30;;
42632;SDS011;28261;53.304;-6.284;2022-12-07T05:59:39;13.50;;;6.18;;
42632;SDS011;28261;53.304;-6.284;2022-12-07T06:01:42;16.10;;;6.15;;
42632;SDS011;28261;53.304;-6.284;2022-12-07T06:03:45;19.60;;;6.30;;
42632;SDS011;28261;53.304;-6.284;2022-12-07T06:05:53;26.88;;;7.05;;
42632;SDS011;28261;53.304;-6.284;2022-12-07T06:07:57;20.17;;;6.63;;
42632;SDS011;28261;53.304;-6.284;2022-12-07T06:10:06;15.43;;;6.53;;
42632;SDS011;28261;53.304;-6.284;2022-12-07T06:12:11;16.27;;;6.13;;
42632;SDS011;28261;53.304;-6.284;2022-12-07T06:14:34;15.20;;;5.53;;
42632;SDS011;28261;53.304;-6.284;2022-12-07T06:16:38;16.02;;;6.38;;
42632;SDS011;28261;53.304;-6.284;2022-12-07T06:18:48;18.35;;;5.72;;
42632;SDS011;28261;53.304;-6.284;2022-12-07T06:20:51;16.05;;;6.13;;
42632;SDS011;28261;53.304;-6.284;2022-12-07T06:22:55;16.75;;;5.95;;
42632;SDS011;28261;53.304;-6.284;2022-12-07T06:24:59;15.68;;;5.40;;
42632;SDS011;28261;53.304;-6.284;2022-12-07T06:27:09;15.88;;;5.55;;
42632;SDS011;28261;53.304;-6.284;2022-12-07T06:29:13;14.05;;;4.80;;
42632;SDS011;28261;53.304;-6.284;2022-12-07T06:31:18;14.00;;;4.95;;
42632;SDS011;28261;53.304;-6.284;2022-12-07T06:33:21;12.63;;;5.30;;
42632;SDS011;28261;53.304;-6.284;2022-12-07T06:35:25;12.20;;;4.75;;
42632;SDS011;28261;53.304;-6.284;2022-12-07T06:37:28;9.85;;;4.68;;
42632;SDS011;28261;53.304;-6.284;2022-12-07T06:39:32;18.55;;;5.10;;
42632;SDS011;28261;53.304;-6.284;2022-12-07T06:41:36;8.57;;;4.88;;
42632;SDS011;28261;53.304;-6.284;2022-12-07T06:44:18;17.55;;;4.38;;
42632;SDS011;28261;53.304;-6.284;2022-12-07T06:46:23;12.98;;;4.68;;
42632;SDS011;28261;53.304;-6.284;2022-12-07T06:48:26;12.93;;;4.80;;
42632;SDS011;28261;53.304;-6.284;2022-12-07T06:50:30;15.85;;;5.25;;
42632;SDS011;28261;53.304;-6.284;2022-12-07T06:52:33;10.38;;;4.53;;
42632;SDS011;28261;53.304;-6.284;2022-12-07T06:54:37;18.35;;;4.80;;
42632;SDS011;28261;53.304;-6.284;2022-12-07T06:56:40;14.32;;;4.50;;
42632;SDS011;28261;53.304;-6.284;2022-12-07T06:58:43;11.73;;;4.55;;
42632;SDS011;28261;53.304;-6.284;2022-12-07T07:00:47;14.93;;;4.45;;
42632;SDS011;28261;53.304;-6.284;2022-12-07T07:02:53;10.85;;;3.97;;
42632;SDS011;28261;53.304;-6.284;2022-12-07T07:04:56;11.65;;;4.75;;
42632;SDS011;28261;53.304;-6.284;2022-12-07T07:07:00;10.15;;;4.50;;
42632;SDS011;28261;53.304;-6.284;2022-12-07T07:09:03;12.07;;;4.13;;
42632;SDS011;28261;53.304;-6.284;2022-12-07T07:11:07;12.90;;;4.57;;
42632;SDS011;28261;53.304;-6.284;2022-12-07T07:13:20;13.57;;;4.65;;
42632;SDS011;28261;53.304;-6.284;2022-12-07T07:15:24;15.95;;;4.35;;
42632;SDS011;28261;53.304;-6.284;2022-12-07T07:17:28;11.95;;;4.32;;
42632;SDS011;28261;53.304;-6.284;2022-12-07T07:19:32;12.60;;;4.53;;
42632;SDS011;28261;53.304;-6.284;2022-12-07T07:21:36;19.08;;;5.20;;
42632;SDS011;28261;53.304;-6.284;2022-12-07T07:23:39;12.55;;;4.75;;
42632;SDS011;28261;53.304;-6.284;2022-12-07T07:25:43;13.65;;;4.78;;
42632;SDS011;28261;53.304;-6.284;2022-12-07T07:27:47;15.13;;;4.32;;
42632;SDS011;28261;53.304;-6.284;2022-12-07T07:29:51;13.88;;;5.35;;
42632;SDS011;28261;53.304;-6.284;2022-12-07T07:31:54;12.93;;;5.88;;
42632;SDS011;28261;53.304;-6.284;2022-12-07T07:34:05;10.15;;;4.35;;
42632;SDS011;28261;53.304;-6.284;2022-12-07T07:36:10;15.18;;;5.72;;
42632;SDS011;28261;53.304;-6.284;2022-12-07T07:38:14;19.77;;;4.90;;
42632;SDS011;28261;53.304;-6.284;2022-12-07T07:40:17;13.32;;;4.65;;
42632;SDS011;28261;53.304;-6.284;2022-12-07T07:42:21;11.88;;;4.75;;
42632;SDS011;28261;53.304;-6.284;2022-12-07T07:44:24;14.13;;;4.80;;
42632;SDS011;28261;53.304;-6.284;2022-12-07T07:46:35;12.93;;;4.90;;
42632;SDS011;28261;53.304;-6.284;2022-12-07T07:48:38;12.95;;;5.30;;
42632;SDS011;28261;53.304;-6.284;2022-12-07T07:50:42;13.52;;;5.57;;
42632;SDS011;28261;53.304;-6.284;2022-12-07T07:52:46;19.20;;;5.95;;
42632;SDS011;28261;53.304;-6.284;2022-12-07T07:54:50;30.00;;;6.78;;
42632;SDS011;28261;53.304;-6.284;2022-12-07T07:56:53;18.05;;;5.65;;
42632;SDS011;28261;53.304;-6.284;2022-12-07T07:58:56;12.95;;;5.57;;
42632;SDS011;28261;53.304;-6.284;2022-12-07T08:01:03;10.15;;;4.82;;
42632;SDS011;28261;53.304;-6.284;2022-12-07T08:03:07;14.30;;;4.65;;
42632;SDS011;28261;53.304;-6.284;2022-12-07T08:05:11;12.70;;;4.40;;
42632;SDS011;28261;53.304;-6.284;2022-12-07T08:07:15;13.60;;;4.75;;
42632;SDS011;28261;53.304;-6.284;2022-12-07T08:09:20;11.48;;;4.88;;
42632;SDS011;28261;53.304;-6.284;2022-12-07T08:11:24;15.32;;;5.60;;
42632;SDS011;28261;53.304;-6.284;2022-12-07T08:13:27;13.43;;;5.35;;
42632;SDS011;28261;53.304;-6.284;2022-12-07T08:15:32;11.57;;;4.18;;
42632;SDS011;28261;53.304;-6.284;2022-12-07T08:17:36;17.80;;;5.05;;
42632;SDS011;28261;53.304;-6.284;2022-12-07T08:19:39;14.60;;;4.72;;
42632;SDS011;28261;53.304;-6.284;2022-12-07T08:21:42;13.00;;;4.90;;
42632;SDS011;28261;53.304;-6.284;2022-12-07T08:23:46;10.85;;;5.00;;
42632;SDS011;28261;53.304;-6.284;2022-12-07T08:25:50;12.15;;;5.20;;
42632;SDS011;28261;53.304;-6.284;2022-12-07T08:27:54;14.82;;;4.85;;
42632;SDS011;28261;53.304;-6.284;2022-12-07T08:29:57;12.80;;;5.00;;
42632;SDS011;28261;53.304;-6.284;2022-12-07T08:32:01;14.18;;;5.40;;
42632;SDS011;28261;53.304;-6.284;2022-12-07T08:34:10;13.32;;;4.60;;
42632;SDS011;28261;53.304;-6.284;2022-12-07T08:36:13;9.98;;;4.82;;
42632;SDS011;28261;53.304;-6.284;2022-12-07T08:38:18;20.67;;;5.15;;
42632;SDS011;28261;53.304;-6.284;2022-12-07T08:40:21;10.82;;;4.68;;
42632;SDS011;28261;53.304;-6.284;2022-12-07T08:42:26;10.32;;;4.78;;
42632;SDS011;28261;53.304;-6.284;2022-12-07T08:44:31;14.18;;;4.63;;
42632;SDS011;28261;53.304;-6.284;2022-12-07T08:46:35;9.77;;;4.18;;
42632;SDS011;28261;53.304;-6.284;2022-12-07T08:48:42;11.25;;;3.90;;
42632;SDS011;28261;53.304;-6.284;2022-12-07T08:50:49;13.43;;;4.40;;
42632;SDS011;28261;53.304;-6.284;2022-12-07T08:52:54;7.85;;;4.32;;
42632;SDS011;28261;53.304;-6.284;2022-12-07T08:55:00;15.88;;;4.50;;
42632;SDS011;28261;53.304;-6.284;2022-12-07T08:57:05;7.60;;;4.20;;
42632;SDS011;28261;53.304;-6.284;2022-12-07T08:59:10;12.98;;;4.13;;
42632;SDS011;28261;53.304;-6.284;2022-12-07T09:01:17;14.52;;;4.25;;
42632;SDS011;28261;53.304;-6.284;2022-12-07T09:03:20;15.75;;;3.65;;
42632;SDS011;28261;53.304;-6.284;2022-12-07T09:05:23;27.52;;;4.70;;
42632;SDS011;28261;53.304;-6.284;2022-12-07T09:07:27;14.02;;;4.35;;
42632;SDS011;28261;53.304;-6.284;2022-12-07T09:09:33;15.18;;;4.25;;
42632;SDS011;28261;53.304;-6.284;2022-12-07T09:11:36;14.10;;;4.25;;
42632;SDS011;28261;53.304;-6.284;2022-12-07T09:13:40;127.55;;;10.90;;
42632;SDS011;28261;53.304;-6.284;2022-12-07T09:15:45;92.95;;;9.48;;
42632;SDS011;28261;53.304;-6.284;2022-12-07T09:17:48;56.85;;;6.75;;
42632;SDS011;28261;53.304;-6.284;2022-12-07T09:19:52;28.35;;;6.43;;
42632;SDS011;28261;53.304;-6.284;2022-12-07T09:21:55;23.75;;;4.90;;
42632;SDS011;28261;53.304;-6.284;2022-12-07T09:26:01;14.00;;;3.78;;
42632;SDS011;28261;53.304;-6.284;2022-12-07T09:28:11;9.80;;;3.92;;
42632;SDS011;28261;53.304;-6.284;2022-12-07T09:30:14;8.63;;;3.67;;
42632;SDS011;28261;53.304;-6.284;2022-12-07T09:32:19;10.52;;;4.03;;
42632;SDS011;28261;53.304;-6.284;2022-12-07T09:34:23;9.38;;;4.60;;
42632;SDS011;28261;53.304;-6.284;2022-12-07T09:36:28;13.00;;;4.28;;
42632;SDS011;28261;53.304;-6.284;2022-12-07T09:38:31;11.07;;;4.85;;
42632;SDS011;28261;53.304;-6.284;2022-12-07T09:40:35;10.80;;;4.38;;
42632;SDS011;28261;53.304;-6.284;2022-12-07T09:42:39;14.45;;;4.68;;
42632;SDS011;28261;53.304;-6.284;2022-12-07T09:44:46;8.05;;;4.40;;
42632;SDS011;28261;53.304;-6.284;2022-12-07T09:46:49;10.90;;;4.30;;
42632;SDS011;28261;53.304;-6.284;2022-12-07T09:48:56;10.48;;;3.67;;
42632;SDS011;28261;53.304;-6.284;2022-12-07T09:51:00;9.63;;;4.30;;
42632;SDS011;28261;53.304;-6.284;2022-12-07T09:53:05;7.88;;;3.70;;
42632;SDS011;28261;53.304;-6.284;2022-12-07T09:55:14;10.95;;;4.03;;
42632;SDS011;28261;53.304;-6.284;2022-12-07T09:57:27;6.72;;;3.47;;
42632;SDS011;28261;53.304;-6.284;2022-12-07T09:59:32;13.07;;;4.07;;
42632;SDS011;28261;53.304;-6.284;2022-12-07T10:01:38;7.90;;;3.22;;
42632;SDS011;28261;53.304;-6.284;2022-12-07T10:03:42;14.70;;;3.63;;
42632;SDS011;28261;53.304;-6.284;2022-12-07T10:05:53;8.43;;;3.50;;
42632;SDS011;28261;53.304;-6.284;2022-12-07T10:07:56;9.10;;;3.47;;
42632;SDS011;28261;53.304;-6.284;2022-12-07T10:10:02;12.48;;;4.10;;
42632;SDS011;28261;53.304;-6.284;2022-12-07T10:12:07;10.73;;;4.03;;
42632;SDS011;28261;53.304;-6.284;2022-12-07T10:14:12;7.45;;;3.63;;
42632;SDS011;28261;53.304;-6.284;2022-12-07T10:18:44;11.88;;;3.20;;
42632;SDS011;28261;53.304;-6.284;2022-12-07T10:20:47;10.80;;;3.60;;
42632;SDS011;28261;53.304;-6.284;2022-12-07T10:23:02;11.95;;;3.90;;
42632;SDS011;28261;53.304;-6.284;2022-12-07T10:25:08;7.38;;;3.65;;
42632;SDS011;28261;53.304;-6.284;2022-12-07T10:27:21;11.40;;;4.60;;
42632;SDS011;28261;53.304;-6.284;2022-12-07T10:29:30;10.55;;;4.53;;
42632;SDS011;28261;53.304;-6.284;2022-12-07T10:31:34;13.90;;;4.70;;
42632;SDS011;28261;53.304;-6.284;2022-12-07T10:33:48;13.48;;;5.00;;
42632;SDS011;28261;53.304;-6.284;2022-12-07T10:35:52;14.05;;;4.93;;
42632;SDS011;28261;53.304;-6.284;2022-12-07T10:37:56;11.13;;;4.80;;
42632;SDS011;28261;53.304;-6.284;2022-12-07T10:40:10;6.80;;;4.32;;
42632;SDS011;28261;53.304;-6.284;2022-12-07T10:42:29;8.80;;;3.53;;
42632;SDS011;28261;53.304;-6.284;2022-12-07T10:44:33;8.20;;;4.00;;
42632;SDS011;28261;53.304;-6.284;2022-12-07T10:46:46;9.90;;;3.67;;
42632;SDS011;28261;53.304;-6.284;2022-12-07T10:49:04;15.48;;;4.28;;
42632;SDS011;28261;53.304;-6.284;2022-12-07T10:51:33;11.48;;;3.50;;
42632;SDS011;28261;53.304;-6.284;2022-12-07T10:53:48;11.02;;;3.95;;
42632;SDS011;28261;53.304;-6.284;2022-12-07T10:58:43;9.18;;;3.85;;
42632;SDS011;28261;53.304;-6.284;2022-12-07T11:00:55;9.93;;;3.53;;
42632;SDS011;28261;53.304;-6.284;2022-12-07T11:05:44;24.17;;;5.20;;
42632;SDS011;28261;53.304;-6.284;2022-12-07T11:07:58;54.47;;;6.30;;
42632;SDS011;28261;53.304;-6.284;2022-12-07T11:10:09;22.05;;;5.63;;
42632;SDS011;28261;53.304;-6.284;2022-12-07T11:12:21;14.10;;;3.97;;
42632;SDS011;28261;53.304;-6.284;2022-12-07T11:14:36;14.73;;;3.95;;
42632;SDS011;28261;53.304;-6.284;2022-12-07T11:16:50;12.30;;;3.78;;
42632;SDS011;28261;53.304;-6.284;2022-12-07T11:19:00;13.00;;;4.38;;
42632;SDS011;28261;53.304;-6.284;2022-12-07T11:21:18;13.95;;;4.15;;
42632;SDS011;28261;53.304;-6.284;2022-12-07T11:25:53;9.52;;;4.28;;
42632;SDS011;28261;53.304;-6.284;2022-12-07T11:28:06;12.70;;;4.03;;
42632;SDS011;28261;53.304;-6.284;2022-12-07T11:30:23;13.20;;;3.67;;
42632;SDS011;28261;53.304;-6.284;2022-12-07T11:32:38;10.00;;;4.05;;
42632;SDS011;28261;53.304;-6.284;2022-12-07T11:34:57;13.35;;;3.45;;
42632;SDS011;28261;53.304;-6.284;2022-12-07T11:37:09;12.60;;;4.30;;
42632;SDS011;28261;53.304;-6.284;2022-12-07T11:39:20;6.95;;;3.45;;
42632;SDS011;28261;53.304;-6.284;2022-12-07T11:41:29;12.10;;;3.75;;
42632;SDS011;28261;53.304;-6.284;2022-12-07T11:43:39;10.45;;;3.85;;
42632;SDS011;28261;53.304;-6.284;2022-12-07T11:45:56;10.05;;;3.92;;
42632;SDS011;28261;53.304;-6.284;2022-12-07T11:48:08;15.00;;;4.50;;
42632;SDS011;28261;53.304;-6.284;2022-12-07T11:50:21;9.00;;;3.58;;
42632;SDS011;28261;53.304;-6.284;2022-12-07T11:52:32;8.75;;;3.95;;
42632;SDS011;28261;53.304;-6.284;2022-12-07T11:54:46;11.45;;;4.15;;
42632;SDS011;28261;53.304;-6.284;2022-12-07T11:56:52;11.07;;;3.50;;
42632;SDS011;28261;53.304;-6.284;2022-12-07T11:59:00;12.07;;;3.80;;
42632;SDS011;28261;53.304;-6.284;2022-12-07T12:01:11;8.82;;;4.07;;
42632;SDS011;28261;53.304;-6.284;2022-12-07T12:03:22;8.55;;;3.97;;
42632;SDS011;28261;53.304;-6.284;2022-12-07T12:05:31;15.82;;;3.42;;
42632;SDS011;28261;53.304;-6.284;2022-12-07T12:07:35;12.15;;;3.60;;
42632;SDS011;28261;53.304;-6.284;2022-12-07T12:10:00;11.20;;;3.90;;
42632;SDS011;28261;53.304;-6.284;2022-12-07T12:12:13;14.18;;;3.80;;
42632;SDS011;28261;53.304;-6.284;2022-12-07T12:14:48;8.13;;;3.55;;
42632;SDS011;28261;53.304;-6.284;2022-12-07T12:17:10;9.73;;;3.78;;
42632;SDS011;28261;53.304;-6.284;2022-12-07T12:19:31;13.05;;;3.80;;
42632;SDS011;28261;53.304;-6.284;2022-12-07T12:21:38;7.55;;;3.10;;
42632;SDS011;28261;53.304;-6.284;2022-12-07T12:23:43;6.63;;;3.47;;
42632;SDS011;28261;53.304;-6.284;2022-12-07T12:25:50;14.05;;;3.83;;
42632;SDS011;28261;53.304;-6.284;2022-12-07T12:27:56;17.00;;;3.53;;
42632;SDS011;28261;53.304;-6.284;2022-12-07T12:30:02;8.98;;;3.42;;
42632;SDS011;28261;53.304;-6.284;2022-12-07T12:32:13;16.92;;;4.18;;
42632;SDS011;28261;53.304;-6.284;2022-12-07T12:34:33;10.38;;;3.40;;
42632;SDS011;28261;53.304;-6.284;2022-12-07T12:36:51;13.85;;;4.03;;
42632;SDS011;28261;53.304;-6.284;2022-12-07T12:39:10;21.80;;;4.55;;
42632;SDS011;28261;53.304;-6.284;2022-12-07T12:44:02;12.93;;;4.85;;
42632;SDS011;28261;53.304;-6.284;2022-12-07T12:46:45;12.15;;;3.45;;
42632;SDS011;28261;53.304;-6.284;2022-12-07T12:48:53;9.35;;;3.22;;
42632;SDS011;28261;53.304;-6.284;2022-12-07T12:53:35;10.50;;;3.83;;
42632;SDS011;28261;53.304;-6.284;2022-12-07T13:00:40;14.05;;;3.47;;
42632;SDS011;28261;53.304;-6.284;2022-12-07T13:02:47;9.85;;;4.05;;